createdAt,value
2022-11-21T00:09:41.510Z,56.90
2022-11-21T00:14:49.578Z,54.20
2022-11-21T00:19:56.981Z,62.20
2022-11-21T00:25:04.191Z,59.90
2022-11-21T00:40:26.499Z,47.00
2022-11-21T00:45:33.707Z,58.40
2022-11-21T00:55:46.581Z,58.60
2022-11-21T01:00:54.129Z,61.40
2022-11-21T01:06:07.113Z,57.60
2022-11-21T01:11:16.873Z,55.10
2022-11-21T01:16:26.952Z,58.40
2022-11-21T01:21:35.219Z,48.60
2022-11-21T01:26:49.684Z,57.70
2022-11-21T01:32:03.181Z,54.60
2022-11-21T01:37:10.533Z,50.70
2022-11-21T01:42:18.250Z,51.30
2022-11-21T01:47:25.506Z,50.80
2022-11-21T01:57:42.888Z,46.20
2022-11-21T02:02:55.405Z,45.10
2022-11-21T02:08:07.301Z,45.30
2022-11-21T02:13:14.694Z,48.80
2022-11-21T02:18:22.436Z,49.70
2022-11-21T02:23:38.832Z,45.40
2022-11-21T02:28:46.573Z,44.50
2022-11-21T02:34:08.283Z,45.90
2022-11-21T02:39:21.327Z,41.50
2022-11-21T02:44:36.708Z,45.50
2022-11-21T02:49:51.634Z,46.50
2022-11-21T03:00:30.778Z,44.80
2022-11-21T03:05:40.017Z,47.30
2022-11-21T03:10:47.103Z,46.10
2022-11-21T03:15:55.754Z,43.50
2022-11-21T03:21:03.161Z,44.70
2022-11-21T03:26:10.275Z,48.00
2022-11-21T03:36:23.455Z,41.30
2022-11-21T03:41:30.647Z,43.90
2022-11-21T03:46:39.643Z,43.90
2022-11-21T03:51:47.571Z,45.90
2022-11-21T03:57:20.880Z,43.50
2022-11-21T04:02:28.245Z,46.30
2022-11-21T04:07:35.626Z,43.80
2022-11-21T04:12:43.105Z,43.60
2022-11-21T04:17:51.112Z,45.00
2022-11-21T04:22:58.564Z,44.60
2022-11-21T04:28:07.266Z,40.10
2022-11-21T04:33:15.172Z,47.30
2022-11-21T04:38:22.287Z,46.80
2022-11-21T04:48:39.325Z,42.40
2022-11-21T04:53:47.346Z,41.60
2022-11-21T04:58:57.232Z,41.20
2022-11-21T05:04:04.341Z,46.90
2022-11-21T05:14:17.776Z,48.30
2022-11-21T05:19:25.914Z,45.80
2022-11-21T05:24:33.116Z,48.10
2022-11-21T05:29:40.551Z,46.00
2022-11-21T05:34:48.242Z,48.80
2022-11-21T05:39:55.568Z,50.60
2022-11-21T05:45:03.969Z,50.20
2022-11-21T05:50:12.252Z,47.90
2022-11-21T05:55:19.804Z,45.80
2022-11-21T06:00:27.315Z,48.60
2022-11-21T06:05:34.807Z,38.60
2022-11-21T06:15:49.777Z,41.60
2022-11-21T06:21:01.535Z,46.80
2022-11-21T06:26:12.769Z,45.70
2022-11-21T06:31:22.250Z,48.50
2022-11-21T06:36:29.276Z,46.80
2022-11-21T06:41:36.378Z,49.60
2022-11-21T06:46:48.238Z,43.40
2022-11-21T06:51:57.929Z,45.40
2022-11-21T07:00:48.899Z,52.60
2022-11-21T07:05:59.888Z,50.10
2022-11-21T07:11:25.578Z,48.60
2022-11-21T07:16:35.180Z,46.70
2022-11-21T07:21:43.272Z,47.50
2022-11-21T07:26:51.386Z,53.30
2022-11-21T07:31:58.806Z,48.30
2022-11-21T07:42:13.115Z,48.00
2022-11-21T07:47:20.758Z,40.40
2022-11-21T07:52:30.391Z,52.20
2022-11-21T07:57:37.846Z,49.00
2022-11-21T08:02:45.887Z,63.60
2022-11-21T08:07:52.888Z,67.20
2022-11-21T08:12:59.801Z,51.80
2022-11-21T08:18:12.719Z,44.90
2022-11-21T08:23:19.802Z,41.30
2022-11-21T08:28:27.007Z,41.10
2022-11-21T08:38:39.585Z,48.80
2022-11-21T08:43:46.914Z,44.70
2022-11-21T08:48:53.926Z,44.00
2022-11-21T08:54:03.002Z,41.70
2022-11-21T08:59:10.766Z,42.50
2022-11-21T09:04:18.171Z,45.10
2022-11-21T09:09:25.939Z,34.40
2022-11-21T09:14:52.275Z,52.40
2022-11-21T09:19:59.809Z,48.60
2022-11-21T09:28:12.734Z,46.20
2022-11-21T09:33:19.737Z,41.30
2022-11-21T09:38:27.257Z,41.40
2022-11-21T09:43:55.549Z,40.00
2022-11-21T09:49:06.638Z,35.80
2022-11-21T09:54:21.913Z,36.50
2022-11-21T09:59:36.374Z,37.10
2022-11-21T10:04:43.956Z,39.00
2022-11-21T10:10:05.427Z,37.40
2022-11-21T10:15:25.363Z,40.90
2022-11-21T10:20:47.692Z,38.20
2022-11-21T10:25:59.390Z,33.80
2022-11-21T10:31:10.423Z,42.30
2022-11-21T10:36:27.064Z,42.40
2022-11-21T10:41:47.914Z,43.50
2022-11-21T10:47:00.332Z,42.40
2022-11-21T10:52:13.152Z,48.50
2022-11-21T10:57:21.914Z,45.10
2022-11-21T11:02:29.434Z,41.90
2022-11-21T11:07:36.545Z,42.10
2022-11-21T11:13:08.744Z,35.30
2022-11-21T11:18:26.909Z,35.80
2022-11-21T11:23:34.052Z,35.70
2022-11-21T11:28:41.662Z,41.20
2022-11-21T11:33:58.585Z,39.60
2022-11-21T11:39:18.673Z,44.50
2022-11-21T11:44:51.390Z,39.70
2022-11-21T11:50:13.588Z,39.10
2022-11-21T11:55:27.712Z,44.80
2022-11-21T12:00:41.881Z,45.10
2022-11-21T12:06:02.449Z,43.00
2022-11-21T12:11:38.764Z,42.10
2022-11-21T12:16:47.193Z,44.70
2022-11-21T12:21:54.740Z,45.70
2022-11-21T12:27:15.439Z,44.70
2022-11-21T12:32:36.461Z,44.40
2022-11-21T12:37:56.047Z,43.60
2022-11-21T12:43:18.088Z,39.30
2022-11-21T12:49:04.824Z,47.30
2022-11-21T12:54:31.895Z,46.70
2022-11-21T12:59:49.590Z,48.60
2022-11-21T13:04:59.041Z,46.40
2022-11-21T13:10:14.280Z,44.00
2022-11-21T13:15:31.758Z,41.80
2022-11-21T13:20:52.257Z,36.90
2022-11-21T13:26:02.071Z,39.60
2022-11-21T13:31:31.234Z,41.10
2022-11-21T13:36:40.451Z,42.30
2022-11-21T13:42:22.143Z,40.70
2022-11-21T13:48:11.251Z,40.40
2022-11-21T13:53:42.253Z,40.80
2022-11-21T13:59:03.969Z,37.00
2022-11-21T14:04:43.989Z,39.50
2022-11-21T14:09:53.163Z,43.70
2022-11-21T14:15:21.958Z,44.50
2022-11-21T14:20:32.665Z,44.20
2022-11-21T14:25:47.565Z,42.00
2022-11-21T14:31:00.995Z,39.60
2022-11-21T14:36:11.029Z,43.30
2022-11-21T14:41:32.062Z,42.80
2022-11-21T14:46:41.302Z,42.50
2022-11-21T14:51:52.391Z,40.80
2022-11-21T14:57:01.591Z,42.40
2022-11-21T15:02:15.894Z,39.20
2022-11-21T15:07:31.843Z,44.00
2022-11-21T15:12:47.900Z,44.10
2022-11-21T15:23:35.649Z,42.80
2022-11-21T15:28:58.742Z,38.90
2022-11-21T15:39:38.003Z,40.80
2022-11-21T15:45:00.926Z,39.50
2022-11-21T15:50:09.755Z,44.10
2022-11-21T15:55:22.216Z,41.20
2022-11-21T16:00:29.361Z,41.60
2022-11-21T16:05:36.772Z,38.40
2022-11-21T16:10:44.687Z,39.90
2022-11-21T16:15:52.100Z,40.30
2022-11-21T16:21:11.736Z,41.00
2022-11-21T16:26:19.518Z,40.50
2022-11-21T16:31:28.655Z,38.70
2022-11-21T16:36:35.840Z,39.40
2022-11-21T16:41:46.031Z,37.70
2022-11-21T16:46:55.571Z,40.80
2022-11-21T16:52:03.198Z,39.80
2022-11-21T16:57:10.687Z,41.70
2022-11-21T17:02:17.680Z,42.10
2022-11-21T17:07:25.449Z,36.50
2022-11-21T17:12:36.250Z,40.90
2022-11-21T17:17:43.539Z,39.40
2022-11-21T17:22:50.617Z,36.90
2022-11-21T17:27:58.219Z,39.30
2022-11-21T17:33:05.280Z,36.40
2022-11-21T17:38:12.412Z,40.30
2022-11-21T17:48:25.496Z,39.20
2022-11-21T17:59:03.489Z,39.40
2022-11-21T18:04:15.039Z,37.40
2022-11-21T18:09:22.813Z,42.10
2022-11-21T18:19:36.224Z,38.20
2022-11-21T18:24:43.043Z,38.80
2022-11-21T18:34:56.253Z,35.80
2022-11-21T18:40:03.769Z,36.00
2022-11-21T18:45:12.369Z,37.20
2022-11-21T18:50:19.901Z,39.50
2022-11-21T18:55:28.220Z,39.60
2022-11-21T19:00:35.222Z,39.00
2022-11-21T19:10:51.962Z,39.30
2022-11-21T19:16:01.789Z,40.70
2022-11-21T19:21:11.094Z,39.60
2022-11-21T19:26:21.775Z,37.90
2022-11-21T19:31:28.923Z,38.00
2022-11-21T19:43:12.004Z,38.70
2022-11-21T19:48:19.729Z,38.70
2022-11-21T19:53:28.255Z,37.90
2022-11-21T19:58:35.312Z,38.10
2022-11-21T20:03:44.537Z,37.40
2022-11-21T20:08:55.469Z,31.10
2022-11-21T20:14:02.926Z,41.20
2022-11-21T20:19:13.632Z,40.10
2022-11-21T20:24:21.255Z,41.20
2022-11-21T20:29:28.766Z,37.90
2022-11-21T20:34:36.449Z,38.80
2022-11-21T20:39:43.531Z,33.60
2022-11-21T20:45:54.489Z,40.50
2022-11-21T20:50:48.837Z,38.80
2022-11-21T20:55:46.459Z,38.60
2022-11-21T21:00:53.773Z,29.40
2022-11-21T21:11:36.927Z,31.70
2022-11-21T21:16:44.785Z,43.10
2022-11-21T21:21:52.127Z,42.00
2022-11-21T21:32:04.952Z,40.80
2022-11-21T21:37:12.363Z,41.90
2022-11-21T21:42:19.877Z,42.00
2022-11-21T21:47:27.179Z,48.70
2022-11-21T21:52:35.693Z,44.60
2022-11-21T21:57:47.179Z,57.00
2022-11-21T22:03:01.282Z,54.60
2022-11-21T22:08:08.762Z,56.10
2022-11-21T22:13:16.073Z,50.60
2022-11-21T22:23:30.830Z,53.00
2022-11-21T22:28:38.077Z,51.90
2022-11-21T22:38:55.186Z,49.50
2022-11-21T22:44:02.658Z,50.50
2022-11-21T22:49:11.329Z,49.00
2022-11-21T22:54:20.956Z,52.60
2022-11-21T22:59:29.873Z,51.00
2022-11-21T23:04:37.200Z,50.20
2022-11-21T23:09:44.709Z,49.40
2022-11-21T23:14:53.041Z,47.90
2022-11-21T23:20:00.644Z,46.30
2022-11-21T23:25:08.988Z,45.10
2022-11-21T23:30:18.412Z,48.90
2022-11-21T23:35:25.414Z,48.20
2022-11-21T23:40:32.718Z,47.20
2022-11-21T23:45:40.025Z,47.40
2022-11-21T23:55:53.910Z,43.40
